Time;durP1;ratioP1;P1;durP2;ratioP2;P2;SDS_P1;SDS_P2;PMS_P1;PMS_P2;Temp;Humidity;BMP_temperature;BMP_pressure;BME280_temperature;BME280_humidity;BME280_pressure;Samples;Min_cycle;Max_cycle;Signal;HPM_P1;HPM_P2
2020/12/27 00:01:49;;;;;;;2.85;2.50;;;5.60;91.40;;;;;;4993336;28;20021;-86
2020/12/27 00:04:28;;;;;;;;;;;;;;;;;;;;;
2020/12/27 00:07:02;;;;;;;2.95;2.70;;;5.60;91.40;;;;;;5009998;28;20045;-85
2020/12/27 00:09:39;;;;;;;3.03;2.50;;;5.60;91.30;;;;;;5023548;28;20109;-83
2020/12/27 00:12:06;;;;;;;2.00;1.80;;;5.60;91.40;;;;;;5016239;28;20100;-86
2020/12/27 00:14:35;;;;;;;3.25;2.67;;;5.60;91.40;;;;;;4998434;28;20032;-86
2020/12/27 00:17:11;;;;;;;4.68;2.25;;;5.60;91.40;;;;;;4996941;28;20033;-86
2020/12/27 00:19:38;;;;;;;2.55;2.05;;;5.60;91.30;;;;;;5016481;28;20060;-86
2020/12/27 00:22:07;;;;;;;2.05;1.88;;;5.60;91.20;;;;;;4995828;28;20018;-86
2020/12/27 00:24:36;;;;;;;2.42;1.95;;;5.60;91.20;;;;;;4995162;28;20026;-86
2020/12/27 00:27:21;;;;;;;4.43;2.20;;;5.60;91.20;;;;;;5000946;28;20046;-86
2020/12/27 00:29:49;;;;;;;2.55;2.17;;;5.60;91.20;;;;;;4990425;28;20038;-86
2020/12/27 00:32:15;;;;;;;2.97;2.40;;;5.60;91.30;;;;;;4973336;28;20037;-86
2020/12/27 00:34:46;;;;;;;2.17;1.90;;;5.60;91.20;;;;;;4979731;28;20070;-86
2020/12/27 00:37:14;;;;;;;;;;;5.60;91.10;;;;;;4998012;28;20038;-86
2020/12/27 00:39:43;;;;;;;2.75;2.25;;;5.60;91.10;;;;;;5024314;28;19910;-87
2020/12/27 00:42:17;;;;;;;4.03;2.13;;;5.50;91.00;;;;;;4992085;28;20084;-86
2020/12/27 00:44:43;;;;;;;2.40;2.00;;;5.50;91.00;;;;;;4991196;28;20022;-86
2020/12/27 00:47:16;;;;;;;3.03;2.17;;;5.50;91.00;;;;;;4985880;28;20046;-86
2020/12/27 00:49:45;;;;;;;2.55;2.10;;;5.50;91.00;;;;;;4986160;28;20117;-86
2020/12/27 00:52:13;;;;;;;2.40;2.15;;;5.50;91.00;;;;;;4994016;28;20109;-86
2020/12/27 00:54:38;;;;;;;3.05;2.00;;;5.50;91.00;;;;;;5015768;28;20478;-83
2020/12/27 00:59:55;;;;;;;2.63;1.90;;;5.50;90.90;;;;;;5016222;28;20114;-86
2020/12/27 01:02:21;;;;;;;2.67;2.05;;;5.60;90.90;;;;;;4978587;28;20125;-86
2020/12/27 01:04:51;;;;;;;2.40;2.03;;;5.50;90.80;;;;;;4989150;28;20463;-86
2020/12/27 01:07:24;;;;;;;2.20;2.00;;;5.60;90.80;;;;;;4987829;28;20065;-86
2020/12/27 01:09:55;;;;;;;2.90;1.90;;;5.60;90.70;;;;;;4999542;28;20578;-86
2020/12/27 01:12:23;;;;;;;2.13;1.55;;;5.60;90.70;;;;;;5003110;28;20030;-86
2020/12/27 01:14:56;;;;;;;1.85;1.60;;;5.50;90.70;;;;;;4998426;28;20029;-86
2020/12/27 01:17:32;;;;;;;2.15;1.90;;;5.50;90.60;;;;;;4980326;28;20034;-85
2020/12/27 01:20:03;;;;;;;2.72;2.10;;;5.50;90.60;;;;;;4963793;28;20034;-85
2020/12/27 01:22:35;;;;;;;2.13;1.92;;;5.50;90.50;;;;;;4990762;28;20034;-86
2020/12/27 01:25:06;;;;;;;1.80;1.67;;;5.50;90.50;;;;;;4997961;28;20025;-86
2020/12/27 01:27:34;;;;;;;2.97;2.05;;;5.50;90.50;;;;;;4997258;28;20396;-83
2020/12/27 01:30:02;;;;;;;2.78;2.00;;;5.50;90.50;;;;;;4995388;28;20498;-85
2020/12/27 01:32:40;;;;;;;3.47;2.40;;;5.50;90.50;;;;;;4978271;28;20109;-86
2020/12/27 01:35:08;;;;;;;3.38;2.40;;;5.50;90.50;;;;;;4980634;28;20474;-86
2020/12/27 01:37:41;;;;;;;2.85;2.10;;;5.40;90.40;;;;;;4983654;28;20066;-86
2020/12/27 01:40:10;;;;;;;2.90;2.22;;;5.50;90.40;;;;;;4994476;28;20121;-87
2020/12/27 01:42:36;;;;;;;4.32;2.50;;;5.50;90.40;;;;;;4987560;28;20046;-86
2020/12/27 01:45:05;;;;;;;3.58;2.33;;;5.40;90.30;;;;;;4997000;28;20077;-84
2020/12/27 01:47:53;;;;;;;3.42;2.53;;;5.40;90.20;;;;;;5005665;28;20068;-84
2020/12/27 01:50:28;;;;;;;3.13;2.58;;;5.40;90.20;;;;;;4997330;28;20030;-86
2020/12/27 01:52:56;;;;;;;3.45;2.40;;;5.40;90.30;;;;;;4979374;28;20030;-84
2020/12/27 01:55:31;;;;;;;2.83;2.42;;;5.40;90.20;;;;;;4971257;28;20026;-84
2020/12/27 01:58:18;;;;;;;2.78;2.08;;;5.40;90.20;;;;;;4997645;28;20026;-84
2020/12/27 02:00:45;;;;;;;2.83;2.25;;;5.40;90.30;;;;;;4993060;28;20106;-84
2020/12/27 02:03:31;;;;;;;3.50;2.40;;;5.40;90.30;;;;;;4996168;28;20026;-84
2020/12/27 02:06:06;;;;;;;2.50;2.30;;;5.40;90.20;;;;;;4993684;28;20019;-84
2020/12/27 02:08:38;;;;;;;4.82;2.40;;;5.40;90.20;;;;;;4971432;28;20085;-84
2020/12/27 02:11:10;;;;;;;2.70;2.30;;;5.40;90.20;;;;;;4985382;28;20458;-85
2020/12/27 02:14:17;;;;;;;;;;;5.40;90.20;;;;;;4978659;28;20498;-84
2020/12/27 02:17:00;;;;;;;3.42;2.50;;;5.40;90.50;;;;;;4979450;28;19905;-85
2020/12/27 02:19:43;;;;;;;3.10;2.60;;;5.40;90.30;;;;;;4996168;28;20038;-85
2020/12/27 02:22:17;;;;;;;3.97;2.70;;;5.40;90.20;;;;;;4991811;28;20021;-85
2020/12/27 02:24:49;;;;;;;5.05;3.30;;;5.30;90.20;;;;;;4984642;28;20337;-85
2020/12/27 02:27:20;;;;;;;4.20;2.80;;;5.40;90.30;;;;;;4976948;28;20030;-85
2020/12/27 02:30:11;;;;;;;3.55;2.83;;;5.40;90.20;;;;;;5009922;28;20033;-84
2020/12/27 02:32:49;;;;;;;4.30;2.70;;;5.40;90.30;;;;;;4980648;28;20053;-84
2020/12/27 02:35:15;;;;;;;4.63;2.85;;;5.30;90.20;;;;;;4993676;28;20376;-84
2020/12/27 02:37:58;;;;;;;4.03;2.92;;;5.40;90.20;;;;;;4995845;28;20022;-84
2020/12/27 02:40:26;;;;;;;4.45;2.80;;;5.40;90.20;;;;;;4999521;28;20026;-84
2020/12/27 02:42:52;;;;;;;3.60;2.90;;;5.40;90.10;;;;;;4996552;28;20045;-85
2020/12/27 02:45:23;;;;;;;3.78;2.83;;;5.40;90.20;;;;;;4995969;28;20026;-85
2020/12/27 02:47:51;;;;;;;3.53;2.63;;;5.40;90.10;;;;;;4996464;28;20025;-86
2020/12/27 02:50:17;;;;;;;4.35;3.30;;;5.40;90.10;;;;;;4996222;28;20133;-85
2020/12/27 02:52:46;;;;;;;4.18;2.97;;;5.40;90.10;;;;;;4996431;28;20519;-85
2020/12/27 02:55:23;;;;;;;3.40;2.80;;;5.30;90.00;;;;;;4994312;28;20048;-85
2020/12/27 02:57:51;;;;;;;3.65;2.90;;;5.40;90.00;;;;;;4994944;28;20054;-84
2020/12/27 03:00:29;;;;;;;;;;;;;;;;;;;;;
2020/12/27 03:03:04;;;;;;;6.05;3.85;;;5.30;90.00;;;;;;4997761;28;20060;-86
2020/12/27 03:05:46;;;;;;;3.35;2.47;;;5.30;90.00;;;;;;5013646;28;20022;-85
2020/12/27 03:08:17;;;;;;;3.45;2.60;;;5.30;90.00;;;;;;4975505;28;20108;-85
2020/12/27 03:10:45;;;;;;;3.92;2.63;;;5.30;90.00;;;;;;5014102;28;20022;-85
2020/12/27 03:13:11;;;;;;;3.10;2.47;;;5.30;89.90;;;;;;4976566;28;20097;-85
2020/12/27 03:15:41;;;;;;;6.03;2.65;;;5.30;90.00;;;;;;4983301;28;20507;-84
2020/12/27 03:18:19;;;;;;;3.15;2.72;;;5.40;90.00;;;;;;4994804;28;20066;-84
2020/12/27 03:21:04;;;;;;;;;;;;;;;;;;;;;
2020/12/27 03:23:41;;;;;;;3.63;2.53;;;5.40;90.00;;;;;;5013549;28;20098;-84
2020/12/27 03:26:07;;;;;;;4.45;2.50;;;5.30;90.00;;;;;;4981070;28;20052;-85
2020/12/27 03:28:38;;;;;;;2.85;2.10;;;5.40;90.00;;;;;;4995209;28;20042;-83
2020/12/27 03:31:07;;;;;;;3.40;2.35;;;5.30;90.00;;;;;;5013218;28;20166;-84
2020/12/27 03:33:43;;;;;;;3.00;2.15;;;5.40;89.80;;;;;;4995603;28;20022;-84
2020/12/27 03:36:09;;;;;;;3.40;2.83;;;5.30;89.90;;;;;;4976972;28;20054;-85
2020/12/27 03:38:53;;;;;;;3.22;2.58;;;5.30;89.80;;;;;;5003194;28;20054;-85
2020/12/27 03:41:37;;;;;;;;;;;;;;;;;;;;;
2020/12/27 03:44:15;;;;;;;3.72;2.33;;;5.30;89.70;;;;;;4984487;28;20030;-85
2020/12/27 03:47:21;;;;;;;3.47;2.50;;;5.30;89.80;;;;;;5000473;28;20107;-85
2020/12/27 03:49:59;;;;;;;;;;;;;;;;;;;;;
2020/12/27 03:52:36;;;;;;;4.70;2.53;;;5.30;90.00;;;;;;4997367;28;20030;-85
2020/12/27 03:55:15;;;;;;;3.60;2.65;;;5.30;90.00;;;;;;4979798;28;20154;-85
2020/12/27 03:57:49;;;;;;;4.45;2.85;;;5.30;90.00;;;;;;4980034;28;20472;-85
2020/12/27 04:00:23;;;;;;;3.25;2.55;;;5.30;90.20;;;;;;4995304;28;20022;-85
2020/12/27 04:02:51;;;;;;;4.30;2.75;;;5.30;90.00;;;;;;4995934;28;20121;-84
2020/12/27 04:05:27;;;;;;;4.10;2.60;;;5.30;89.80;;;;;;4995560;28;20026;-85
2020/12/27 04:08:05;;;;;;;3.55;2.75;;;5.30;89.90;;;;;;4982854;28;20072;-85
2020/12/27 04:10:43;;;;;;;;;;;;;;;;;;;;;
2020/12/27 04:13:09;;;;;;;5.25;2.70;;;5.30;90.00;;;;;;5013186;28;20028;-85
2020/12/27 04:15:38;;;;;;;3.00;2.58;;;5.30;89.90;;;;;;4995115;28;20113;-86
2020/12/27 04:18:11;;;;;;;4.43;2.50;;;5.30;90.00;;;;;;4995417;28;20022;-85
2020/12/27 04:20:40;;;;;;;4.05;2.35;;;5.30;90.00;;;;;;4994357;28;20041;-85
2020/12/27 04:23:16;;;;;;;;;;;;;;;;;;;;;
2020/12/27 04:25:50;;;;;;;3.67;2.30;;;5.30;90.00;;;;;;4995186;28;20064;-85
2020/12/27 04:28:44;;;;;;;2.17;1.88;;;5.30;90.00;;;;;;4964539;28;20096;-84
2020/12/27 04:31:40;;;;;;;3.47;2.28;;;5.40;90.20;;;;;;4994879;28;20046;-85
2020/12/27 04:34:09;;;;;;;1.98;1.70;;;5.30;90.20;;;;;;4995757;28;20029;-85
2020/12/27 04:36:50;;;;;;;2.15;1.90;;;5.30;90.00;;;;;;5012660;28;20030;-85
2020/12/27 04:39:35;;;;;;;2.47;1.92;;;5.40;90.00;;;;;;4995450;28;20068;-84
2020/12/27 04:42:25;;;;;;;2.00;1.80;;;5.30;90.00;;;;;;4984333;28;20022;-84
2020/12/27 04:47:47;;;;;;;3.28;1.98;;;5.40;90.00;;;;;;5011442;28;20046;-84
2020/12/27 04:53:14;;;;;;;1.95;1.70;;;5.40;90.00;;;;;;4982513;28;20084;-85
2020/12/27 04:55:52;;;;;;;2.33;1.67;;;5.40;90.00;;;;;;4996500;28;20033;-85
2020/12/27 04:58:30;;;;;;;1.73;1.50;;;5.40;90.00;;;;;;4998843;28;20109;-84
2020/12/27 05:01:07;;;;;;;1.50;1.38;;;5.40;90.00;;;;;;4998371;28;20089;-85
2020/12/27 05:03:52;;;;;;;1.83;1.33;;;5.50;90.10;;;;;;4998465;28;20032;-85
2020/12/27 05:06:23;;;;;;;2.72;1.58;;;5.40;90.00;;;;;;4984080;28;20039;-84
2020/12/27 05:08:59;;;;;;;2.75;1.80;;;5.50;90.00;;;;;;4998316;28;20040;-84
2020/12/27 05:11:31;;;;;;;1.50;1.13;;;5.50;90.00;;;;;;4996054;28;20150;-84
2020/12/27 05:14:24;;;;;;;;;;;;;;;;;;;;;
2020/12/27 05:17:07;;;;;;;1.70;1.33;;;5.50;90.10;;;;;;5002605;28;20034;-85
2020/12/27 05:19:38;;;;;;;1.70;1.20;;;5.50;90.10;;;;;;4996507;28;20069;-85
2020/12/27 05:22:25;;;;;;;;;;;;;;;;;;;;;
2020/12/27 05:24:58;;;;;;;2.47;1.23;;;5.50;90.10;;;;;;4988692;28;20032;-85
2020/12/27 05:27:33;;;;;;;2.55;1.23;;;5.50;90.10;;;;;;4998386;28;20484;-85
2020/12/27 05:30:14;;;;;;;;;;;;;;;;;;;;;
2020/12/27 05:32:46;;;;;;;2.00;1.13;;;5.50;90.50;;;;;;4999950;28;20021;-85
2020/12/27 05:35:12;;;;;;;0.88;0.75;;;5.50;90.30;;;;;;5024254;28;20296;-85
2020/12/27 05:37:49;;;;;;;2.17;1.15;;;5.50;90.30;;;;;;4981016;28;20053;-85
2020/12/27 05:40:15;;;;;;;1.02;0.90;;;5.50;90.40;;;;;;4978996;28;20027;-86
2020/12/27 05:42:51;;;;;;;1.40;1.10;;;5.50;90.40;;;;;;5011023;28;20026;-84
2020/12/27 05:45:26;;;;;;;1.15;0.80;;;5.50;90.50;;;;;;4980030;28;20034;-85
2020/12/27 05:48:05;;;;;;;2.15;0.80;;;5.50;90.60;;;;;;4997021;28;20045;-85
2020/12/27 05:50:51;;;;;;;1.08;0.70;;;5.50;90.60;;;;;;5001754;28;20128;-85
2020/12/27 05:53:23;;;;;;;1.30;0.85;;;5.50;90.70;;;;;;5013959;28;20124;-85
2020/12/27 05:56:03;;;;;;;1.65;0.90;;;5.50;90.70;;;;;;5001603;28;20032;-86
2020/12/27 05:58:38;;;;;;;0.70;0.60;;;5.50;90.80;;;;;;5014536;28;20546;-85
2020/12/27 06:01:18;;;;;;;2.15;1.00;;;5.50;90.80;;;;;;4997222;28;20026;-86
2020/12/27 06:07:02;;;;;;;1.55;0.85;;;5.50;90.90;;;;;;4998808;28;20489;-85
2020/12/27 06:10:11;;;;;;;0.77;0.63;;;5.50;91.00;;;;;;4996923;28;20076;-87
2020/12/27 06:13:13;;;;;;;0.70;0.52;;;5.40;91.00;;;;;;4997577;28;20456;-86
2020/12/27 06:16:03;;;;;;;0.95;0.80;;;5.50;91.00;;;;;;4993270;28;20488;-86
2020/12/27 06:18:41;;;;;;;0.50;0.50;;;5.50;91.10;;;;;;4995154;28;20069;-86
2020/12/27 06:21:51;;;;;;;1.05;0.50;;;5.40;91.10;;;;;;4996817;28;20037;-86
2020/12/27 06:24:30;;;;;;;0.55;0.50;;;5.50;91.10;;;;;;5013729;28;20369;-85
2020/12/27 06:27:02;;;;;;;0.55;0.55;;;5.50;91.20;;;;;;5015478;28;20037;-85
2020/12/27 06:30:06;;;;;;;0.73;0.57;;;5.40;91.20;;;;;;4980936;28;20125;-86
2020/12/27 06:32:42;;;;;;;1.17;0.50;;;5.40;91.30;;;;;;5009138;28;20121;-86
2020/12/27 06:35:18;;;;;;;1.10;0.50;;;5.50;91.30;;;;;;4993598;28;20025;-86
2020/12/27 06:37:55;;;;;;;0.52;0.40;;;5.50;91.40;;;;;;4987523;28;20270;-86
2020/12/27 06:40:39;;;;;;;;;;;;;;;;;;;;;
2020/12/27 06:43:32;;;;;;;;;;;;;;;;;;;;;
2020/12/27 06:46:31;;;;;;;2.20;0.77;;;5.50;91.50;;;;;;5014781;28;20048;-86
2020/12/27 06:49:23;;;;;;;0.52;0.50;;;5.40;91.50;;;;;;4996974;28;20040;-86
2020/12/27 06:51:52;;;;;;;1.48;0.50;;;5.40;91.60;;;;;;4996192;28;20045;-87
2020/12/27 06:54:49;;;;;;;1.55;0.40;;;5.40;91.70;;;;;;4985227;28;20026;-86
2020/12/27 06:57:48;;;;;;;0.40;0.32;;;5.40;91.70;;;;;;4989693;28;20478;-86
2020/12/27 07:00:42;;;;;;;;;;;;;;;;;;;;;
2020/12/27 07:03:26;;;;;;;0.90;0.60;;;5.50;91.80;;;;;;4983814;28;20038;-87
2020/12/27 07:06:00;;;;;;;0.30;0.30;;;5.50;91.80;;;;;;4996300;28;20068;-87
2020/12/27 07:08:49;;;;;;;0.20;0.20;;;5.50;91.90;;;;;;4977594;28;20034;-87
2020/12/27 07:11:38;;;;;;;;;;;;;;;;;;;;;
2020/12/27 07:14:25;;;;;;;;;;;;;;;;;;;;;
2020/12/27 07:17:20;;;;;;;0.30;0.28;;;5.50;91.90;;;;;;5013267;28;20502;-86
2020/12/27 07:20:02;;;;;;;;;;;;;;;;;;;;;
2020/12/27 07:22:39;;;;;;;0.75;0.30;;;5.60;92.00;;;;;;5013437;28;20383;-86
2020/12/27 07:25:22;;;;;;;0.43;0.35;;;5.60;92.00;;;;;;4992495;28;20479;-86
2020/12/27 07:28:02;;;;;;;0.47;0.43;;;5.60;92.00;;;;;;4989658;28;20049;-88
2020/12/27 07:30:36;;;;;;;0.70;0.38;;;5.60;92.00;;;;;;4995624;28;20037;-87
2020/12/27 07:33:25;;;;;;;0.30;0.30;;;5.60;92.00;;;;;;5012540;28;20025;-86
2020/12/27 07:36:23;;;;;;;0.75;0.25;;;5.60;92.00;;;;;;5012600;28;20034;-86
2020/12/27 07:38:59;;;;;;;0.30;0.30;;;5.60;92.00;;;;;;4995455;28;20046;-86
2020/12/27 07:41:37;;;;;;;1.42;0.35;;;5.60;92.00;;;;;;4995588;28;20049;-85
2020/12/27 07:44:18;;;;;;;0.28;0.25;;;5.60;92.00;;;;;;4995855;28;20522;-86
2020/12/27 07:46:53;;;;;;;0.40;0.32;;;5.60;92.00;;;;;;4995079;28;20026;-88
2020/12/27 07:49:31;;;;;;;;;;;;;;;;;;;;;
2020/12/27 07:52:00;;;;;;;0.63;0.38;;;5.60;92.00;;;;;;4995691;28;20484;-87
2020/12/27 07:54:42;;;;;;;0.57;0.25;;;5.60;92.00;;;;;;4994912;28;20026;-86
2020/12/27 07:57:19;;;;;;;0.77;0.50;;;5.60;92.00;;;;;;4962771;28;20475;-87
2020/12/27 08:00:05;;;;;;;0.30;0.30;;;5.70;92.00;;;;;;5010777;28;20077;-91
2020/12/27 08:02:43;;;;;;;0.57;0.30;;;5.70;92.00;;;;;;4975418;28;20546;-86
2020/12/27 08:05:15;;;;;;;0.70;0.30;;;5.70;91.90;;;;;;4992953;28;20034;-85
2020/12/27 08:07:55;;;;;;;0.30;0.20;;;5.70;91.90;;;;;;4995074;28;20088;-88
2020/12/27 08:10:37;;;;;;;0.63;0.40;;;5.70;91.90;;;;;;4995209;28;20125;-86
2020/12/27 08:13:10;;;;;;;0.17;0.13;;;5.70;91.90;;;;;;4975890;28;20030;-87
2020/12/27 08:15:38;;;;;;;0.30;0.30;;;5.70;91.80;;;;;;4990938;28;20034;-86
2020/12/27 08:18:11;;;;;;;0.20;0.20;;;5.80;91.80;;;;;;4986893;28;20018;-85
2020/12/27 08:20:51;;;;;;;0.32;0.30;;;5.80;91.80;;;;;;5015700;28;20022;-86
2020/12/27 08:23:43;;;;;;;0.60;0.30;;;5.80;92.10;;;;;;4998919;28;20034;-85
2020/12/27 08:26:14;;;;;;;0.32;0.20;;;5.80;91.70;;;;;;4986362;28;20527;-86
2020/12/27 08:28:50;;;;;;;0.73;0.40;;;5.80;91.70;;;;;;4997857;28;20058;-86
2020/12/27 08:31:30;;;;;;;0.35;0.20;;;5.80;92.00;;;;;;4998741;28;20482;-88
2020/12/27 08:34:25;;;;;;;0.57;0.28;;;5.80;91.70;;;;;;4979310;28;20473;-87
2020/12/27 08:36:57;;;;;;;0.73;0.25;;;5.80;91.60;;;;;;4998339;28;20030;-87
2020/12/27 08:40:11;;;;;;;0.35;0.35;;;5.90;91.60;;;;;;4998954;28;20053;-85
2020/12/27 08:43:25;;;;;;;0.30;0.20;;;5.90;91.50;;;;;;5013125;28;20088;-88
2020/12/27 08:46:00;;;;;;;0.20;0.10;;;5.90;91.50;;;;;;4981462;28;20030;-88
2020/12/27 08:48:43;;;;;;;0.73;0.20;;;5.90;91.40;;;;;;4998647;28;20030;-89
2020/12/27 08:51:20;;;;;;;0.43;0.20;;;5.90;91.40;;;;;;4998239;28;20117;-87
2020/12/27 08:54:45;;;;;;;;;;;;;;;;;;;;;
2020/12/27 08:58:17;;;;;;;;;;;;;;;;;;;;;
2020/12/27 09:04:03;;;;;;;2.22;1.00;;;6.00;91.40;;;;;;4990129;28;20507;-89
2020/12/27 09:07:21;;;;;;;0.68;0.50;;;6.00;91.40;;;;;;4991621;28;20067;-88
2020/12/27 09:10:20;;;;;;;0.50;0.30;;;6.00;91.50;;;;;;4978697;28;20030;-89
2020/12/27 09:13:26;;;;;;;;;;;;;;;;;;;;;
2020/12/27 09:16:29;;;;;;;0.75;0.20;;;6.00;91.60;;;;;;4997327;28;20030;-91
2020/12/27 09:19:20;;;;;;;;;;;;;;;;;;;;;
2020/12/27 09:25:07;;;;;;;0.35;0.25;;;6.00;91.70;;;;;;5002235;28;20093;-88
2020/12/27 09:31:06;;;;;;;0.30;0.20;;;6.00;91.70;;;;;;4990798;28;20062;-88
2020/12/27 09:33:40;;;;;;;0.88;0.40;;;6.00;91.80;;;;;;4988418;28;20455;-88
2020/12/27 09:36:19;;;;;;;1.40;0.30;;;6.00;91.80;;;;;;4992866;28;20061;-89
2020/12/27 09:39:13;;;;;;;0.57;0.20;;;6.00;91.80;;;;;;5000447;28;20541;-88
2020/12/27 09:45:24;;;;;;;0.88;0.30;;;6.00;91.80;;;;;;4981774;28;20034;-86
2020/12/27 09:47:53;;;;;;;0.13;0.13;;;6.10;91.90;;;;;;4992820;28;20088;-87
2020/12/27 09:50:43;;;;;;;0.65;0.20;;;6.00;91.80;;;;;;4982592;28;20022;-86
2020/12/27 09:53:18;;;;;;;0.20;0.20;;;6.10;91.80;;;;;;4989207;28;20533;-86
2020/12/27 09:55:56;;;;;;;;;;;;;;;;;;;;;
2020/12/27 09:58:39;;;;;;;0.40;0.35;;;6.10;91.90;;;;;;5007175;28;20033;-85
2020/12/27 10:01:07;;;;;;;0.30;0.30;;;6.10;91.90;;;;;;4982681;28;20026;-87
2020/12/27 10:03:37;;;;;;;0.63;0.32;;;6.10;91.90;;;;;;5005364;28;20050;-88
2020/12/27 10:06:33;;;;;;;;;;;;;;;;;;;;;
2020/12/27 10:09:08;;;;;;;0.47;0.30;;;6.10;91.90;;;;;;4981984;28;20046;-87
2020/12/27 10:11:39;;;;;;;0.85;0.43;;;6.10;91.90;;;;;;5005164;28;20030;-87
2020/12/27 10:14:07;;;;;;;0.88;0.40;;;6.10;91.90;;;;;;4992953;28;20037;-86
2020/12/27 10:16:59;;;;;;;;;;;;;;;;;;;;;
2020/12/27 10:19:39;;;;;;;0.30;0.10;;;6.20;92.00;;;;;;4988838;28;20034;-86
2020/12/27 10:22:22;;;;;;;;;;;;;;;;;;;;;
2020/12/27 10:25:00;;;;;;;1.77;0.70;;;6.10;92.00;;;;;;5009158;28;20025;-87
2020/12/27 10:27:32;;;;;;;0.45;0.35;;;6.10;92.00;;;;;;5010278;28;20030;-87
2020/12/27 10:30:12;;;;;;;1.05;0.35;;;6.10;92.00;;;;;;4963404;28;20484;-86
2020/12/27 10:33:02;;;;;;;0.30;0.30;;;6.10;92.10;;;;;;4989505;28;20042;-86
2020/12/27 10:35:33;;;;;;;0.35;0.30;;;6.20;92.10;;;;;;5022698;28;20042;-87
2020/12/27 10:38:09;;;;;;;;;;;;;;;;;;;;;
2020/12/27 10:41:13;;;;;;;;;;;;;;;;;;;;;
2020/12/27 10:43:42;;;;;;;0.38;0.35;;;6.10;92.10;;;;;;4979279;28;20060;-89
2020/12/27 10:46:12;;;;;;;0.20;0.20;;;6.10;92.00;;;;;;4992991;28;20048;-87
2020/12/27 10:49:01;;;;;;;0.30;0.30;;;6.10;92.00;;;;;;5002486;28;20036;-89
2020/12/27 10:51:43;;;;;;;0.30;0.30;;;6.10;92.00;;;;;;4996909;28;20065;-86
2020/12/27 10:57:36;;;;;;;;;;;;;;;;;;;;;
2020/12/27 11:00:37;;;;;;;0.17;0.13;;;6.20;92.00;;;;;;4996183;28;20472;-90
2020/12/27 11:03:08;;;;;;;0.83;0.30;;;6.10;92.00;;;;;;4982793;28;20036;-91
2020/12/27 11:05:38;;;;;;;1.47;0.30;;;6.10;92.00;;;;;;4960024;28;20384;-89
2020/12/27 11:08:05;;;;;;;0.55;0.20;;;6.20;92.00;;;;;;4988094;28;20030;-89
2020/12/27 11:10:54;;;;;;;0.68;0.30;;;6.20;92.00;;;;;;4990811;28;20030;-87
2020/12/27 11:13:37;;;;;;;1.63;0.20;;;6.20;92.00;;;;;;5002067;28;20053;-88
2020/12/27 11:16:15;;;;;;;;;;;;;;;;;;;;;
2020/12/27 11:18:51;;;;;;;;;;;;;;;;;;;;;
2020/12/27 11:21:54;;;;;;;;;;;;;;;;;;;;;
2020/12/27 11:24:48;;;;;;;0.20;0.20;;;6.20;92.00;;;;;;4987559;28;20030;-87
2020/12/27 11:27:21;;;;;;;0.95;0.25;;;6.20;91.90;;;;;;5002610;28;20404;-87
2020/12/27 11:30:12;;;;;;;0.70;0.30;;;6.20;91.90;;;;;;4986400;28;20132;-89
2020/12/27 11:32:49;;;;;;;0.52;0.40;;;6.20;91.90;;;;;;4978293;28;20480;-86
2020/12/27 11:35:15;;;;;;;3.90;2.75;;;6.20;91.90;;;;;;4971776;28;20030;-86
2020/12/27 11:38:01;;;;;;;3.15;1.40;;;6.20;91.80;;;;;;4989514;28;20562;-87
2020/12/27 11:40:44;;;;;;;1.27;0.70;;;6.20;91.70;;;;;;4991244;28;20029;-88
2020/12/27 11:43:15;;;;;;;1.75;0.50;;;6.30;91.70;;;;;;4984027;28;20033;-88
2020/12/27 11:45:46;;;;;;;1.10;0.38;;;6.30;91.70;;;;;;4990832;28;20030;-85
2020/12/27 11:48:22;;;;;;;0.20;0.20;;;6.30;91.60;;;;;;4989513;28;20022;-87
2020/12/27 11:50:53;;;;;;;0.25;0.22;;;6.30;91.60;;;;;;4978567;28;20042;-86
2020/12/27 11:56:43;;;;;;;;;;;;;;;;;;;;;
2020/12/27 11:59:17;;;;;;;0.22;0.20;;;6.40;91.50;;;;;;5008403;28;20026;-88
2020/12/27 12:02:09;;;;;;;0.20;0.20;;;6.40;91.40;;;;;;4973695;28;20117;-88
2020/12/27 12:05:01;;;;;;;0.95;0.30;;;6.40;91.40;;;;;;4992193;28;20030;-90
2020/12/27 12:07:31;;;;;;;0.10;0.10;;;6.40;91.40;;;;;;4984213;28;20058;-87
2020/12/27 12:10:20;;;;;;;0.45;0.40;;;6.40;91.30;;;;;;4979848;28;20101;-87
2020/12/27 12:12:55;;;;;;;0.05;0.05;;;6.40;91.20;;;;;;4987313;28;20542;-86
2020/12/27 12:15:34;;;;;;;;;;;;;;;;;;;;;
2020/12/27 12:18:01;;;;;;;1.05;0.20;;;6.40;91.10;;;;;;5019702;28;20030;-86
2020/12/27 12:20:50;;;;;;;0.28;0.20;;;6.40;91.00;;;;;;4999360;28;20034;-87
2020/12/27 12:26:43;;;;;;;;;;;;;;;;;;;;;
2020/12/27 12:29:23;;;;;;;0.20;0.20;;;6.50;90.80;;;;;;5014576;28;20484;-90
2020/12/27 12:32:10;;;;;;;0.10;0.10;;;6.50;90.70;;;;;;4984467;28;20032;-85
2020/12/27 12:34:40;;;;;;;0.20;0.10;;;6.50;90.70;;;;;;4977389;28;20030;-86
2020/12/27 12:37:40;;;;;;;0.50;0.10;;;6.50;90.70;;;;;;4988766;28;20137;-87
2020/12/27 12:40:24;;;;;;;0.20;0.13;;;6.50;90.70;;;;;;4993216;28;20114;-85
2020/12/27 12:42:58;;;;;;;0.25;0.17;;;6.50;90.70;;;;;;4985606;28;20034;-87
2020/12/27 12:45:23;;;;;;;0.20;0.20;;;6.50;90.60;;;;;;5010687;28;20021;-86
2020/12/27 12:51:30;;;;;;;0.15;0.10;;;6.50;90.60;;;;;;4980527;28;20030;-88
2020/12/27 12:54:27;;;;;;;1.00;0.40;;;6.50;90.60;;;;;;4988443;28;20034;-86
2020/12/27 12:57:29;;;;;;;;;;;;;;;;;;;;;
2020/12/27 13:00:31;;;;;;;0.20;0.20;;;6.50;90.60;;;;;;5007041;28;20030;-87
2020/12/27 13:03:10;;;;;;;0.85;0.20;;;6.50;90.60;;;;;;5007160;28;20033;-87
2020/12/27 13:05:53;;;;;;;1.90;0.20;;;6.50;90.60;;;;;;4997990;28;20031;-89
2020/12/27 13:08:22;;;;;;;0.30;0.20;;;6.50;90.50;;;;;;4988341;28;20046;-86
2020/12/27 13:11:08;;;;;;;0.20;0.10;;;6.50;90.50;;;;;;4988633;28;20128;-88
2020/12/27 13:14:07;;;;;;;0.30;0.20;;;6.60;90.50;;;;;;5003994;28;20126;-89
2020/12/27 13:16:44;;;;;;;0.20;0.17;;;6.60;90.50;;;;;;5009870;28;20549;-88
2020/12/27 13:19:17;;;;;;;0.10;0.10;;;6.60;90.30;;;;;;4984155;28;20424;-88
2020/12/27 13:22:01;;;;;;;1.40;0.57;;;6.60;90.30;;;;;;5006755;28;20026;-87
2020/12/27 13:25:09;;;;;;;;;;;;;;;;;;;;;
2020/12/27 13:28:01;;;;;;;1.25;0.40;;;6.60;90.10;;;;;;5013346;28;20506;-87
2020/12/27 13:30:33;;;;;;;2.47;0.40;;;6.60;89.90;;;;;;4974224;28;20050;-85
2020/12/27 13:33:21;;;;;;;0.08;0.08;;;6.60;89.70;;;;;;4989949;28;20030;-87
2020/12/27 13:35:59;;;;;;;;;;;;;;;;;;;;;
2020/12/27 13:38:40;;;;;;;;;;;;;;;;;;;;;
2020/12/27 13:41:14;;;;;;;0.10;0.03;;;6.70;89.20;;;;;;5010728;28;20379;-87
2020/12/27 13:43:43;;;;;;;0.77;0.13;;;6.70;89.30;;;;;;4976963;28;20101;-87
2020/12/27 13:46:50;;;;;;;;;;;;;;;;;;;;;
2020/12/27 13:49:46;;;;;;;0.55;0.00;;;6.70;89.00;;;;;;4973279;28;20034;-87
2020/12/27 13:52:45;;;;;;;0.10;0.10;;;6.70;89.00;;;;;;4964617;28;20054;-88
2020/12/27 13:55:53;;;;;;;;;;;;;;;;;;;;;
2020/12/27 13:58:58;;;;;;;;;;;;;;;;;;;;;
2020/12/27 14:01:58;;;;;;;;;;;;;;;;;;;;;
2020/12/27 14:04:37;;;;;;;;;;;;;;;;;;;;;
2020/12/27 14:07:56;;;;;;;;;;;;;;;;;;;;;
2020/12/27 14:13:44;;;;;;;0.10;0.10;;;6.70;88.80;;;;;;4985116;28;20439;-88
2020/12/27 14:16:28;;;;;;;;;;;;;;;;;;;;;
2020/12/27 14:18:58;;;;;;;0.20;0.10;;;6.70;88.70;;;;;;5007494;28;20733;-87
2020/12/27 14:21:26;;;;;;;5.47;4.03;;;6.70;88.60;;;;;;4987568;28;20037;-86
2020/12/27 14:24:07;;;;;;;;;;;;;;;;;;;;;
2020/12/27 14:26:59;;;;;;;1.48;0.98;;;6.70;88.70;;;;;;4988891;28;20374;-86
2020/12/27 14:30:02;;;;;;;;;;;;;;;;;;;;;
2020/12/27 14:32:51;;;;;;;0.70;0.40;;;6.70;88.70;;;;;;5004550;28;20506;-86
2020/12/27 14:35:20;;;;;;;0.10;0.10;;;6.70;88.70;;;;;;4991733;28;20104;-88
2020/12/27 14:38:31;;;;;;;;;;;;;;;;;;;;;
2020/12/27 14:41:12;;;;;;;0.30;0.20;;;6.70;89.00;;;;;;4998385;28;20022;-88
2020/12/27 14:43:52;;;;;;;0.20;0.10;;;6.70;89.10;;;;;;4988325;28;20053;-87
2020/12/27 14:47:10;;;;;;;;;;;;;;;;;;;;;
2020/12/27 14:50:09;;;;;;;;;;;;;;;;;;;;;
2020/12/27 14:53:03;;;;;;;0.90;0.20;;;6.60;89.50;;;;;;5007549;28;20033;-88
2020/12/27 14:56:20;;;;;;;;;;;;;;;;;;;;;
2020/12/27 15:02:37;;;;;;;;;;;;;;;;;;;;;
2020/12/27 15:05:24;;;;;;;0.15;0.10;;;6.50;90.10;;;;;;4991895;28;20045;-87
2020/12/27 15:08:37;;;;;;;;;;;;;;;;;;;;;
2020/12/27 15:11:20;;;;;;;0.35;0.10;;;6.50;90.30;;;;;;5002015;28;20053;-87
2020/12/27 15:17:37;;;;;;;;;;;;;;;;;;;;;
2020/12/27 15:20:59;;;;;;;0.20;0.20;;;6.40;90.50;;;;;;4986574;28;20026;-87
2020/12/27 15:23:38;;;;;;;0.52;0.17;;;6.40;90.60;;;;;;4993084;28;20037;-86
2020/12/27 15:26:34;;;;;;;0.63;0.20;;;6.30;90.60;;;;;;4995869;28;20030;-86
2020/12/27 15:30:10;;;;;;;;;;;;;;;;;;;;;
2020/12/27 15:33:00;;;;;;;5.43;2.58;;;6.40;90.70;;;;;;5010826;28;20367;-89
2020/12/27 15:36:07;;;;;;;1.90;0.85;;;6.30;90.70;;;;;;4976663;28;20045;-88
2020/12/27 15:42:19;;;;;;;2.92;0.35;;;6.30;90.80;;;;;;4980986;28;20102;-87
2020/12/27 15:49:04;;;;;;;0.45;0.22;;;6.30;90.80;;;;;;5006368;28;20053;-88
2020/12/27 15:54:41;;;;;;;0.17;0.15;;;6.30;90.80;;;;;;4975773;28;20038;-88
2020/12/27 15:57:58;;;;;;;0.25;0.20;;;6.30;90.80;;;;;;4994738;28;20058;-89
2020/12/27 16:10:18;;;;;;;0.55;0.20;;;6.30;90.80;;;;;;4904333;29;20410;-89
2020/12/27 16:13:16;;;;;;;0.25;0.25;;;6.30;90.80;;;;;;4985194;28;20031;-90
2020/12/27 16:16:08;;;;;;;0.45;0.30;;;6.30;90.80;;;;;;4988565;28;20053;-90
2020/12/27 16:21:57;;;;;;;0.30;0.20;;;6.20;90.80;;;;;;4968528;28;20030;-88
2020/12/27 16:24:39;;;;;;;;;;;;;;;;;;;;;
2020/12/27 16:27:34;;;;;;;;;;;;;;;;;;;;;
2020/12/27 16:30:09;;;;;;;0.50;0.30;;;6.20;90.80;;;;;;5007026;28;20410;-89
2020/12/27 16:33:08;;;;;;;0.50;0.22;;;6.20;90.90;;;;;;4990966;28;20033;-92